Time;durP1;ratioP1;P1;durP2;ratioP2;P2;SDS_P1;SDS_P2;PMS_P1;PMS_P2;Temp;Humidity;BMP_temperature;BMP_pressure;BME280_temperature;BME280_humidity;BME280_pressure;Samples;Min_cycle;Max_cycle;Signal;HPM_P1;HPM_P2
2021/05/31 00:01:38;;;;;;;6.22;5.55;;;;;;;18.07;61.45;100375.27;1820029;77;22193;-47
2021/05/31 00:04:12;;;;;;;6.53;5.72;;;;;;;18.04;61.36;100380.72;1834541;77;22179;-47
2021/05/31 00:06:52;;;;;;;7.25;5.45;;;;;;;18.00;61.12;100373.80;1851344;77;22178;-47
2021/05/31 00:09:26;;;;;;;5.75;4.90;;;;;;;17.95;60.92;100371.77;1821350;77;22155;-47
2021/05/31 00:11:59;;;;;;;7.25;5.30;;;;;;;17.90;60.82;100373.75;1838987;77;22198;-47
2021/05/31 00:14:33;;;;;;;6.17;4.50;;;;;;;17.86;60.63;100367.70;1833729;77;22152;-47
2021/05/31 00:17:06;;;;;;;7.47;4.90;;;;;;;17.85;60.40;100376.63;1846543;77;22653;-47
2021/05/31 00:19:40;;;;;;;5.22;4.55;;;;;;;17.84;60.28;100365.58;1812116;77;22186;-48
2021/05/31 00:22:13;;;;;;;5.40;3.92;;;;;;;17.87;59.93;100368.59;1826823;77;22170;-47
2021/05/31 00:24:48;;;;;;;4.45;3.77;;;;;;;17.82;59.75;100367.44;1853089;77;22175;-47
2021/05/31 00:27:21;;;;;;;7.58;4.67;;;;;;;17.73;59.80;100373.15;1822972;77;22194;-47
2021/05/31 00:30:10;;;;;;;5.37;3.70;;;;;;;17.68;59.80;100376.86;1731948;83;21324;-48
2021/05/31 00:32:43;;;;;;;5.65;4.00;;;;;;;17.69;59.71;100375.94;1820073;77;22191;-47
2021/05/31 00:35:16;;;;;;;6.35;3.75;;;;;;;17.69;59.72;100370.61;1834841;77;22176;-47
2021/05/31 00:37:49;;;;;;;6.10;4.10;;;;;;;17.69;59.74;100375.94;1824104;77;22171;-47
2021/05/31 00:40:24;;;;;;;6.12;3.80;;;;;;;17.75;59.47;100367.30;1789736;77;22205;-47
2021/05/31 00:42:57;;;;;;;6.17;3.40;;;;;;;17.75;59.29;100373.50;1816915;77;22190;-48
2021/05/31 00:45:30;;;;;;;5.97;3.98;;;;;;;17.64;59.48;100367.76;1826655;77;22143;-47
2021/05/31 00:48:05;;;;;;;6.17;3.58;;;;;;;17.58;59.47;100368.01;1813442;77;22226;-47
2021/05/31 00:50:38;;;;;;;5.00;3.30;;;;;;;17.49;59.46;100371.45;1834907;77;22172;-47
2021/05/31 00:53:12;;;;;;;5.05;3.90;;;;;;;17.28;60.03;100371.86;1813708;77;22190;-47
2021/05/31 00:55:45;;;;;;;5.20;3.47;;;;;;;17.30;59.87;100371.34;1812697;77;22139;-47
2021/05/31 00:58:18;;;;;;;3.92;3.12;;;;;;;17.43;59.46;100370.84;1807574;77;22186;-47
2021/05/31 01:00:51;;;;;;;8.53;3.20;;;;;;;17.42;59.46;100359.80;1834791;77;22618;-47
2021/05/31 01:03:37;;;;;;;5.97;3.50;;;;;;;17.37;59.36;100366.17;1767337;80;21123;-49
2021/05/31 01:06:12;;;;;;;6.30;2.92;;;;;;;17.34;59.27;100366.30;1823379;77;22210;-47
2021/05/31 01:08:52;;;;;;;6.50;3.30;;;;;;;17.29;59.31;100367.42;1823803;77;22189;-47
2021/05/31 01:11:58;;;;;;;7.17;3.42;;;;;;;17.26;59.21;100365.73;1834791;77;22148;-47
2021/05/31 01:14:42;;;;;;;4.65;2.83;;;;;;;17.21;59.25;100365.08;1820942;77;20256;-47
2021/05/31 01:17:24;;;;;;;13.38;3.35;;;;;;;17.18;59.25;100364.73;1822215;77;22207;-47
2021/05/31 01:20:33;;;;;;;5.08;3.05;;;;;;;17.13;59.30;100361.86;1853127;77;22144;-47
2021/05/31 01:23:09;;;;;;;4.25;2.60;;;;;;;17.10;59.27;100364.16;1830044;77;22679;-47
2021/05/31 01:26:13;;;;;;;3.60;2.42;;;;;;;17.07;59.36;100353.20;1815095;77;22131;-47
2021/05/31 01:29:08;;;;;;;3.67;2.65;;;;;;;17.07;59.23;100351.87;1805929;77;22629;-47
2021/05/31 01:31:52;;;;;;;5.87;3.40;;;;;;;17.10;59.13;100356.19;1804215;77;28413;-47
2021/05/31 01:34:27;;;;;;;3.92;2.83;;;;;;;17.15;58.81;100362.66;1853199;77;22124;-47
2021/05/31 01:37:16;;;;;;;7.58;3.60;;;;;;;17.07;58.87;100357.19;1814172;77;28069;-47
2021/05/31 01:39:52;;;;;;;3.85;2.72;;;;;;;17.00;59.06;100358.83;1807617;77;22135;-47
2021/05/31 01:42:26;;;;;;;4.80;3.37;;;;;;;16.93;58.89;100359.03;1808553;77;28045;-47
2021/05/31 01:44:59;;;;;;;7.87;2.83;;;;;;;16.90;59.21;100354.28;1828394;77;22135;-47
2021/05/31 01:47:45;;;;;;;4.95;2.98;;;;;;;16.90;59.17;100356.94;1781932;80;21589;-47
2021/05/31 01:50:19;;;;;;;3.72;2.60;;;;;;;16.93;59.09;100349.73;1823851;77;22139;-48
2021/05/31 01:52:52;;;;;;;4.05;2.40;;;;;;;16.93;59.04;100348.40;1818025;77;22171;-47
2021/05/31 01:55:26;;;;;;;5.42;2.52;;;;;;;16.89;58.96;100349.89;1833952;77;22143;-47
2021/05/31 01:57:59;;;;;;;5.08;2.30;;;;;;;16.86;59.13;100357.98;1814273;77;22177;-47
2021/05/31 02:00:33;;;;;;;4.00;2.37;;;;;;;16.84;59.08;100353.19;1821196;77;22587;-47
2021/05/31 02:03:19;;;;;;;5.40;2.58;;;;;;;16.79;59.06;100349.39;1756327;80;21332;-48
2021/05/31 02:05:53;;;;;;;4.03;2.15;;;;;;;16.83;59.07;100348.34;1853123;77;22637;-48
2021/05/31 02:08:26;;;;;;;3.70;2.20;;;;;;;16.84;59.08;100353.19;1807376;77;22638;-47
2021/05/31 02:11:41;;;;;;;3.37;2.40;;;;;;;16.83;59.10;100348.80;1828916;77;22624;-48
2021/05/31 02:14:19;;;;;;;3.17;2.08;;;;;;;16.77;59.03;100344.15;1829052;77;22649;-47
2021/05/31 02:17:30;;;;;;;6.30;3.10;;;;;;;16.77;58.98;100344.59;1824082;77;22135;-47
2021/05/31 02:20:09;;;;;;;4.72;2.52;;;;;;;16.73;59.04;100345.64;1834789;77;22579;-47
2021/05/31 02:22:46;;;;;;;4.00;3.10;;;;;;;16.70;58.93;100345.30;1808162;77;22198;-48
2021/05/31 02:25:19;;;;;;;4.28;2.70;;;;;;;16.65;58.98;100344.61;1847161;77;22135;-47
2021/05/31 02:28:05;;;;;;;4.92;2.50;;;;;;;16.60;59.07;100346.09;1792968;80;21308;-49
2021/05/31 02:30:39;;;;;;;3.30;2.22;;;;;;;16.63;58.91;100347.79;1834776;77;22239;-48
2021/05/31 02:33:13;;;;;;;3.52;2.40;;;;;;;16.59;59.07;100344.36;1833877;77;22577;-47
2021/05/31 02:35:46;;;;;;;3.15;2.20;;;;;;;16.59;59.05;100338.20;1828894;77;22161;-48
2021/05/31 02:38:19;;;;;;;3.83;2.27;;;;;;;16.57;59.09;100349.34;1811885;77;22638;-47
2021/05/31 02:40:53;;;;;;;3.52;2.10;;;;;;;16.50;59.30;100350.90;1845409;77;22185;-48
2021/05/31 02:43:26;;;;;;;3.67;2.00;;;;;;;16.51;59.26;100349.13;1826110;77;22189;-47
2021/05/31 02:46:00;;;;;;;3.30;2.30;;;;;;;16.51;59.24;100341.16;1827385;77;22139;-47
2021/05/31 02:48:33;;;;;;;2.25;1.90;;;;;;;16.50;59.16;100342.93;1826572;77;22174;-48
2021/05/31 02:51:07;;;;;;;5.42;2.37;;;;;;;16.49;59.06;100338.54;1832823;77;22566;-48
2021/05/31 02:53:40;;;;;;;5.50;2.40;;;;;;;16.46;59.09;100349.28;1805019;77;22191;-47
2021/05/31 02:56:13;;;;;;;4.50;2.15;;;;;;;16.42;59.10;100349.46;1834778;77;22191;-47
2021/05/31 02:58:47;;;;;;;3.33;2.37;;;;;;;16.41;59.30;100350.39;1823594;77;22186;-47
2021/05/31 03:01:20;;;;;;;4.67;2.50;;;;;;;16.45;59.41;100357.32;1834050;77;22124;-47
2021/05/31 03:03:53;;;;;;;5.03;2.33;;;;;;;16.49;59.32;100358.94;1789957;77;22197;-48
2021/05/31 03:06:39;;;;;;;5.03;2.47;;;;;;;16.54;59.20;100365.40;1760113;81;21162;-48
2021/05/31 03:09:13;;;;;;;3.00;2.20;;;;;;;16.63;59.19;100353.95;1834788;77;22200;-47
2021/05/31 03:11:46;;;;;;;5.08;2.37;;;;;;;16.64;59.30;100358.34;1820279;77;22163;-47
2021/05/31 03:14:20;;;;;;;3.60;2.33;;;;;;;16.73;59.18;100352.28;1834770;77;22179;-47
2021/05/31 03:16:53;;;;;;;5.15;2.40;;;;;;;16.77;59.25;100361.88;1831335;77;22179;-48
2021/05/31 03:19:26;;;;;;;6.17;2.20;;;;;;;16.82;59.19;100359.02;1836541;77;22209;-46
2021/05/31 03:22:00;;;;;;;3.37;2.42;;;;;;;16.87;59.13;100361.05;1815590;77;22201;-48
2021/05/31 03:24:52;;;;;;;5.55;3.12;;;;;;;16.91;59.17;100357.34;1826943;77;22212;-47
2021/05/31 03:27:26;;;;;;;5.70;2.45;;;;;;;16.98;59.34;100360.68;1823984;77;22182;-48
2021/05/31 03:29:59;;;;;;;3.37;2.40;;;;;;;17.05;59.41;100355.50;1818318;77;22159;-47
2021/05/31 03:32:32;;;;;;;9.13;2.50;;;;;;;17.09;59.52;100351.79;1822513;77;22170;-47
2021/05/31 03:35:07;;;;;;;11.30;2.90;;;;;;;17.16;59.59;100348.44;1834804;77;22180;-47
2021/05/31 03:37:41;;;;;;;5.45;2.33;;;;;;;17.23;59.59;100349.90;1820527;77;22970;-47
2021/05/31 03:40:15;;;;;;;4.65;2.40;;;;;;;17.29;59.51;100348.80;1813939;77;22189;-47
2021/05/31 03:42:51;;;;;;;5.70;2.80;;;;;;;17.35;59.49;100352.06;1818820;77;22170;-48
2021/05/31 03:45:37;;;;;;;6.97;2.40;;;;;;;17.33;59.32;100349.08;1762090;80;21554;-49
2021/05/31 03:48:12;;;;;;;4.17;2.20;;;;;;;17.42;59.32;100351.82;1811664;77;22182;-47
2021/05/31 03:50:45;;;;;;;6.50;3.17;;;;;;;17.47;59.35;100342.70;1837334;77;38298;-47
2021/05/31 03:53:19;;;;;;;3.10;2.30;;;;;;;17.57;59.26;100339.22;1811997;77;22657;-47
2021/05/31 03:55:52;;;;;;;3.33;2.37;;;;;;;17.65;59.12;100334.89;1834899;77;22176;-47
2021/05/31 03:58:25;;;;;;;4.78;2.00;;;;;;;17.69;59.21;100340.00;1820528;77;22165;-46
2021/05/31 04:01:00;;;;;;;3.30;2.22;;;;;;;17.78;59.01;100336.55;1827209;77;22170;-47
2021/05/31 04:03:34;;;;;;;3.05;1.98;;;;;;;17.81;59.13;100336.42;1809558;77;22641;-47
2021/05/31 04:14:11;;;;;;;4.37;2.50;;;;;;;18.06;58.57;100328.74;1801683;77;28070;-47
2021/05/31 04:16:50;;;;;;;3.05;2.27;;;;;;;18.17;58.38;100333.09;1814130;77;22606;-47
2021/05/31 04:19:24;;;;;;;3.20;2.05;;;;;;;18.27;58.45;100326.91;1832988;77;22146;-47
2021/05/31 04:21:58;;;;;;;3.30;1.98;;;;;;;18.34;58.18;100316.34;1815963;77;22297;-46
2021/05/31 04:24:31;;;;;;;3.85;2.27;;;;;;;18.45;57.95;100320.33;1815980;77;22578;-47
2021/05/31 04:27:06;;;;;;;3.10;2.02;;;;;;;18.49;57.93;100318.80;1813574;77;22230;-47
2021/05/31 04:29:45;;;;;;;3.80;1.70;;;;;;;18.58;57.88;100316.16;1819983;77;22224;-47
2021/05/31 04:32:31;;;;;;;3.87;1.82;;;;;;;18.64;57.71;100322.55;1765943;80;21263;-49
2021/05/31 04:35:07;;;;;;;3.80;2.25;;;;;;;18.75;57.52;100315.36;1820030;77;22605;-47
2021/05/31 04:37:40;;;;;;;3.25;2.20;;;;;;;18.81;57.27;100322.20;1838728;77;22189;-47
2021/05/31 04:40:14;;;;;;;4.17;2.30;;;;;;;18.86;57.30;100314.39;1834811;77;22180;-47
2021/05/31 04:42:48;;;;;;;12.03;3.87;;;;;;;18.95;57.25;100318.41;1816903;77;22206;-47
2021/05/31 04:45:23;;;;;;;7.35;2.37;;;;;;;19.04;57.14;100321.13;1820731;77;22139;-47
2021/05/31 04:47:57;;;;;;;2.75;1.87;;;;;;;19.12;57.04;100321.62;1827084;77;22159;-47
2021/05/31 04:50:30;;;;;;;5.97;2.30;;;;;;;19.15;56.76;100322.80;1853268;77;22159;-47
2021/05/31 04:53:03;;;;;;;2.80;1.65;;;;;;;19.22;56.75;100328.69;1825775;77;22178;-47
2021/05/31 04:55:38;;;;;;;2.20;1.70;;;;;;;19.29;56.35;100326.60;1853113;77;22178;-47
2021/05/31 04:58:11;;;;;;;3.87;1.95;;;;;;;19.31;56.32;100326.91;1831665;77;22169;-47
2021/05/31 05:00:45;;;;;;;3.17;2.08;;;;;;;19.39;56.10;100328.33;1828001;77;22131;-47
2021/05/31 05:03:18;;;;;;;4.10;2.52;;;;;;;19.44;55.97;100331.16;1826838;77;22215;-48
2021/05/31 05:05:51;;;;;;;2.77;1.80;;;;;;;19.51;55.97;100330.39;1820386;77;22622;-47
2021/05/31 05:08:25;;;;;;;6.47;2.20;;;;;;;19.63;56.00;100329.38;1802368;77;22182;-47
2021/05/31 05:10:58;;;;;;;3.98;2.10;;;;;;;19.76;55.79;100331.34;1819982;77;22189;-48
2021/05/31 05:13:33;;;;;;;3.10;2.00;;;;;;;19.91;55.79;100335.05;1793616;77;22178;-59
2021/05/31 05:16:06;;;;;;;4.10;2.22;;;;;;;20.04;55.54;100331.74;1808398;77;22633;-48
2021/05/31 05:18:54;;;;;;;2.50;1.82;;;;;;;20.14;55.59;100337.45;1764459;80;21142;-48
2021/05/31 05:21:28;;;;;;;2.35;1.85;;;;;;;20.31;55.00;100332.05;1822501;77;22182;-48
2021/05/31 05:24:05;;;;;;;4.65;2.00;;;;;;;20.38;54.98;100327.72;1774861;77;22204;-48
2021/05/31 05:26:41;;;;;;;2.90;1.75;;;;;;;20.44;54.63;100329.60;1823610;77;22133;-49
2021/05/31 05:29:16;;;;;;;3.90;2.15;;;;;;;20.52;54.61;100326.50;1818351;77;22155;-59
2021/05/31 05:31:49;;;;;;;3.20;1.90;;;;;;;20.59;54.22;100325.67;1849623;77;22167;-58
2021/05/31 05:34:23;;;;;;;2.85;1.92;;;;;;;20.50;53.96;100321.70;1810503;77;22686;-58
2021/05/31 05:37:01;;;;;;;2.22;1.70;;;;;;;20.53;54.14;100322.03;1828745;77;22155;-58
2021/05/31 05:45:12;;;;;;;2.27;1.92;;;;;;;20.73;53.82;100327.12;1824119;77;22116;-58
2021/05/31 05:50:18;;;;;;;3.50;2.45;;;;;;;20.88;53.74;100313.88;1852168;77;22111;-57
2021/05/31 05:52:53;;;;;;;2.85;1.87;;;;;;;20.95;53.59;100312.59;1818271;77;22182;-58
2021/05/31 05:55:26;;;;;;;3.08;2.17;;;;;;;21.05;53.93;100312.42;1823500;77;22131;-58
2021/05/31 05:58:12;;;;;;;2.65;1.70;;;;;;;21.23;53.96;100316.34;1762006;81;21768;-59
2021/05/31 06:00:45;;;;;;;2.58;1.90;;;;;;;21.45;53.74;100315.06;1837528;77;22131;-58
2021/05/31 06:03:18;;;;;;;3.25;1.90;;;;;;;21.62;53.28;100308.77;1810489;77;22215;-57
2021/05/31 06:05:54;;;;;;;5.28;2.30;;;;;;;21.79;53.31;100305.91;1804656;77;22183;-57
2021/05/31 06:08:28;;;;;;;6.60;2.90;;;;;;;21.98;52.92;100304.80;1794576;77;28015;-57
2021/05/31 06:11:01;;;;;;;5.00;2.42;;;;;;;22.21;52.80;100316.78;1853132;77;22155;-57
2021/05/31 06:13:34;;;;;;;3.80;2.12;;;;;;;22.43;52.58;100305.60;1797225;77;22200;-57
2021/05/31 06:16:10;;;;;;;4.03;2.20;;;;;;;22.65;52.44;100309.58;1834799;77;22179;-57
2021/05/31 06:18:56;;;;;;;3.40;1.98;;;;;;;22.81;52.29;100307.26;1727638;82;21732;-59
2021/05/31 06:21:29;;;;;;;3.20;2.17;;;;;;;23.13;51.79;100301.59;1853178;77;22170;-56
2021/05/31 06:24:03;;;;;;;2.85;2.02;;;;;;;23.34;51.27;100295.30;1789577;77;22185;-57
2021/05/31 06:26:36;;;;;;;5.55;2.25;;;;;;;23.52;50.63;100292.34;1834844;77;22531;-57
2021/05/31 06:29:10;;;;;;;3.27;2.30;;;;;;;23.57;50.57;100293.73;1829684;77;22120;-57
2021/05/31 06:31:43;;;;;;;3.22;2.10;;;;;;;23.73;49.87;100294.87;1822272;77;22158;-57
2021/05/31 06:34:17;;;;;;;3.72;2.30;;;;;;;23.91;49.79;100289.20;1853175;77;22179;-56
2021/05/31 06:36:54;;;;;;;4.08;1.90;;;;;;;24.05;49.12;100293.16;1832115;77;22183;-57
2021/05/31 06:39:25;;;;;;;3.67;2.37;;;;;;;24.18;48.96;100301.22;1831549;77;22527;-57
2021/05/31 06:41:58;;;;;;;4.20;2.50;;;;;;;24.29;48.62;100289.69;1803628;77;22262;-55
2021/05/31 06:44:32;;;;;;;3.90;2.20;;;;;;;24.32;48.74;100295.31;1853179;77;22167;-56
2021/05/31 06:47:07;;;;;;;1.85;1.65;;;;;;;24.38;48.45;100295.38;1827979;77;22154;-57
2021/05/31 06:49:41;;;;;;;4.22;2.02;;;;;;;24.42;48.24;100298.23;1824666;77;22158;-57
2021/05/31 06:52:15;;;;;;;3.90;2.10;;;;;;;24.49;48.43;100294.13;1826519;77;22194;-57
2021/05/31 06:55:05;;;;;;;2.25;1.75;;;;;;;24.56;48.14;100294.53;1761910;80;21139;-58
2021/05/31 06:57:39;;;;;;;3.85;1.92;;;;;;;24.72;48.02;100286.23;1819051;77;22587;-56
2021/05/31 07:00:16;;;;;;;2.05;1.50;;;;;;;24.86;48.34;100280.69;1810112;77;22194;-57
2021/05/31 07:02:53;;;;;;;2.83;1.82;;;;;;;25.10;48.11;100275.78;1822737;77;22150;-58
2021/05/31 07:05:43;;;;;;;3.80;1.60;;;;;;;25.23;46.27;100285.13;1704276;82;21514;-57
2021/05/31 07:08:17;;;;;;;2.75;1.75;;;;;;;25.51;47.05;100282.57;1826328;77;22593;-57
2021/05/31 07:10:54;;;;;;;2.20;1.70;;;;;;;25.88;46.62;100280.67;1816605;77;22188;-56
2021/05/31 07:13:30;;;;;;;2.62;1.70;;;;;;;26.21;46.20;100281.23;1806773;77;22218;-57
2021/05/31 07:16:04;;;;;;;2.67;1.70;;;;;;;26.61;45.34;100273.11;1834722;77;22179;-56
2021/05/31 07:18:38;;;;;;;2.05;1.30;;;;;;;26.90;44.60;100271.21;1793291;77;22178;-57
2021/05/31 07:21:14;;;;;;;2.05;1.60;;;;;;;27.22;44.20;100272.20;1818906;77;22147;-57
2021/05/31 07:23:51;;;;;;;2.55;1.87;;;;;;;27.56;44.17;100266.64;1804796;77;22183;-58
2021/05/31 07:26:26;;;;;;;2.58;1.80;;;;;;;27.91;43.00;100261.36;1834625;77;22179;-57
2021/05/31 07:29:00;;;;;;;3.35;1.70;;;;;;;28.11;43.19;100267.72;1820313;77;22659;-57
2021/05/31 07:31:34;;;;;;;1.72;1.20;;;;;;;28.34;42.56;100263.00;1807129;77;22567;-57
2021/05/31 07:34:20;;;;;;;3.47;1.40;;;;;;;28.54;42.37;100262.19;1731598;82;21308;-58
2021/05/31 07:36:55;;;;;;;5.03;1.80;;;;;;;29.05;42.00;100258.45;1808254;77;27938;-57
2021/05/31 07:39:29;;;;;;;2.05;1.52;;;;;;;29.45;41.47;100257.09;1822578;77;22645;-57
2021/05/31 07:42:05;;;;;;;2.55;1.70;;;;;;;29.79;40.95;100253.39;1826160;77;22186;-58
2021/05/31 07:44:39;;;;;;;2.08;1.47;;;;;;;30.28;39.52;100259.16;1834554;77;22580;-56
2021/05/31 07:47:13;;;;;;;1.92;1.32;;;;;;;30.56;38.79;100250.98;1809649;77;22163;-58
2021/05/31 07:50:08;;;;;;;2.60;1.42;;;;;;;30.78;38.24;100249.73;1814864;77;22210;-58
2021/05/31 07:52:44;;;;;;;1.70;1.50;;;;;;;30.77;37.66;100249.38;1820027;77;22591;-57
2021/05/31 07:55:20;;;;;;;3.72;1.40;;;;;;;30.75;37.47;100245.95;1833861;77;22598;-57
2021/05/31 07:57:54;;;;;;;2.65;1.60;;;;;;;30.82;36.85;100244.34;1820141;77;28042;-57
2021/05/31 08:00:30;;;;;;;3.72;1.52;;;;;;;30.84;37.31;100236.05;1834723;77;22180;-57
2021/05/31 08:03:04;;;;;;;2.05;1.60;;;;;;;30.95;36.84;100241.23;1817737;77;28023;-57
2021/05/31 08:05:38;;;;;;;3.40;1.70;;;;;;;31.01;36.88;100233.81;1821731;77;22634;-57
2021/05/31 08:08:11;;;;;;;1.62;1.30;;;;;;;31.24;37.10;100229.30;1813797;77;22163;-58
2021/05/31 08:10:44;;;;;;;3.42;1.30;;;;;;;31.50;36.87;100231.17;1834690;77;22183;-57
2021/05/31 08:13:17;;;;;;;2.80;1.55;;;;;;;31.68;36.41;100232.47;1825395;77;22568;-57
2021/05/31 08:15:52;;;;;;;3.80;1.70;;;;;;;31.97;36.27;100232.69;1834698;77;22208;-57
2021/05/31 08:18:26;;;;;;;3.05;1.30;;;;;;;32.35;36.30;100224.17;1810660;77;22626;-57
2021/05/31 08:21:14;;;;;;;5.42;1.70;;;;;;;32.74;35.49;100231.75;1762159;81;21186;-58
2021/05/31 08:23:48;;;;;;;1.65;1.25;;;;;;;32.89;34.68;100223.82;1806367;77;22170;-57
2021/05/31 08:26:21;;;;;;;2.75;1.07;;;;;;;33.09;34.64;100220.74;1833948;77;22183;-57
2021/05/31 08:28:55;;;;;;;3.15;1.40;;;;;;;33.23;34.49;100224.66;1821550;77;22193;-57
2021/05/31 08:31:28;;;;;;;4.20;1.70;;;;;;;33.33;33.90;100228.06;1834678;77;22179;-57
2021/05/31 08:34:02;;;;;;;3.58;1.42;;;;;;;33.50;33.85;100222.09;1802536;77;22175;-58
2021/05/31 08:36:36;;;;;;;1.85;1.20;;;;;;;33.80;33.20;100215.53;1834715;77;22179;-56
2021/05/31 08:39:09;;;;;;;2.08;1.52;;;;;;;33.88;33.07;100213.81;1806970;77;22194;-56
2021/05/31 08:41:42;;;;;;;4.70;2.10;;;;;;;33.93;31.28;100214.17;1832542;77;22246;-57
2021/05/31 08:44:16;;;;;;;2.58;1.82;;;;;;;33.77;31.92;100217.28;1826832;77;22135;-57
2021/05/31 08:46:49;;;;;;;3.92;1.80;;;;;;;33.82;32.45;100212.65;1831934;77;22663;-57
2021/05/31 08:49:24;;;;;;;5.05;2.10;;;;;;;33.88;31.99;100208.35;1834676;77;22180;-57
2021/05/31 08:51:57;;;;;;;4.87;2.00;;;;;;;33.92;32.58;100210.60;1820002;77;22574;-58
2021/05/31 08:54:31;;;;;;;2.92;1.72;;;;;;;34.17;32.54;100213.22;1834874;77;22175;-56
2021/05/31 08:57:05;;;;;;;5.08;1.55;;;;;;;34.54;32.09;100204.00;1828856;77;22163;-58
2021/05/31 08:59:39;;;;;;;2.50;1.35;;;;;;;34.73;30.93;100208.64;1834745;77;22180;-56
2021/05/31 09:02:13;;;;;;;2.12;1.40;;;;;;;34.78;30.28;100207.08;1826806;77;22176;-58
2021/05/31 09:04:48;;;;;;;3.45;1.80;;;;;;;34.89;31.00;100214.50;1831856;77;22175;-58
2021/05/31 09:07:37;;;;;;;2.85;1.72;;;;;;;34.92;31.04;100214.14;1773035;80;21192;-58
2021/05/31 09:10:12;;;;;;;3.25;1.50;;;;;;;35.13;31.41;100202.03;1820618;77;22186;-56
2021/05/31 09:12:51;;;;;;;2.02;1.20;;;;;;;35.24;29.74;100203.47;1813444;77;22178;-58
2021/05/31 09:15:27;;;;;;;2.87;1.60;;;;;;;35.09;28.29;100206.17;1843954;77;22140;-57
2021/05/31 09:18:20;;;;;;;2.17;1.50;;;;;;;34.62;27.60;100209.42;1794523;78;21134;-51
2021/05/31 09:20:57;;;;;;;3.58;1.32;;;;;;;34.13;29.20;100206.41;1829144;77;22143;-50
2021/05/31 09:23:36;;;;;;;3.67;1.50;;;;;;;33.95;29.98;100205.29;1809433;77;20408;-49
2021/05/31 09:26:12;;;;;;;1.70;1.55;;;;;;;33.89;29.39;100200.50;1821391;77;22116;-50
2021/05/31 09:29:00;;;;;;;3.17;1.70;;;;;;;33.83;30.08;100197.11;1804646;77;22159;-50
2021/05/31 09:31:33;;;;;;;2.80;1.47;;;;;;;33.64;29.08;100204.69;1834780;77;22564;-49
2021/05/31 09:34:10;;;;;;;4.92;1.30;;;;;;;33.57;30.32;100205.04;1853064;77;22175;-51
2021/05/31 09:36:54;;;;;;;2.45;1.55;;;;;;;33.67;30.51;100205.70;1842556;77;20159;-50
2021/05/31 09:39:36;;;;;;;3.33;1.35;;;;;;;33.71;30.08;100202.97;1833106;77;22618;-49
2021/05/31 09:42:16;;;;;;;2.45;1.50;;;;;;;33.65;30.37;100204.50;1827606;77;22194;-50
2021/05/31 09:45:07;;;;;;;3.62;1.40;;;;;;;33.69;29.88;100206.38;1853073;77;22571;-58
2021/05/31 09:47:42;;;;;;;2.12;1.30;;;;;;;33.46;30.11;100202.17;1835118;77;22171;-58
2021/05/31 09:50:25;;;;;;;1.95;1.12;;;;;;;33.40;29.78;100201.50;1834716;77;22176;-57
2021/05/31 09:53:09;;;;;;;5.22;1.52;;;;;;;33.36;30.11;100203.67;1816634;77;22802;-58
2021/05/31 09:55:46;;;;;;;2.33;1.47;;;;;;;33.39;29.92;100207.45;1853152;77;22123;-57
2021/05/31 09:58:19;;;;;;;2.80;1.10;;;;;;;33.43;30.12;100197.90;1824182;77;22195;-57
2021/05/31 10:01:02;;;;;;;3.87;1.47;;;;;;;33.48;30.30;100198.23;1834700;77;22164;-57
2021/05/31 10:03:48;;;;;;;1.95;1.47;;;;;;;33.51;30.23;100201.98;1808308;77;22206;-58
2021/05/31 10:08:58;;;;;;;3.20;1.55;;;;;;;32.95;28.35;100196.87;1821239;77;22169;-58
2021/05/31 10:11:46;;;;;;;3.05;1.50;;;;;;;32.41;28.32;100197.64;1792916;80;21641;-59
2021/05/31 10:14:19;;;;;;;1.98;1.45;;;;;;;31.35;30.68;100197.44;1828806;77;22544;-56
2021/05/31 10:17:12;;;;;;;2.55;1.55;;;;;;;31.69;30.70;100190.66;1828444;77;22237;-58
2021/05/31 10:19:47;;;;;;;1.95;1.42;;;;;;;31.85;29.98;100185.83;1830714;77;22599;-58
2021/05/31 10:22:20;;;;;;;4.20;1.57;;;;;;;31.78;29.70;100182.09;1829327;77;22223;-58
2021/05/31 10:24:53;;;;;;;1.87;1.37;;;;;;;31.76;30.59;100177.80;1820285;77;22191;-57
2021/05/31 10:27:29;;;;;;;2.52;1.60;;;;;;;31.79;30.49;100175.63;1807908;77;22485;-57
2021/05/31 10:30:07;;;;;;;2.33;1.50;;;;;;;31.80;30.00;100171.03;1853052;77;22202;-57
2021/05/31 10:32:41;;;;;;;2.72;1.40;;;;;;;31.74;30.94;100166.58;1812390;77;22677;-58
2021/05/31 10:35:27;;;;;;;2.52;1.40;;;;;;;31.75;31.39;100163.37;1825970;77;22649;-57
2021/05/31 10:38:01;;;;;;;2.25;1.50;;;;;;;31.84;31.47;100165.61;1801360;77;22177;-58
2021/05/31 10:40:38;;;;;;;2.17;1.35;;;;;;;31.88;31.44;100158.83;1822175;77;22209;-56
2021/05/31 10:43:16;;;;;;;2.00;1.62;;;;;;;31.55;31.72;100163.56;1826859;77;22190;-58
2021/05/31 10:46:13;;;;;;;2.72;1.75;;;;;;;31.35;31.80;100159.37;1817323;77;22222;-59
2021/05/31 10:48:51;;;;;;;2.75;1.70;;;;;;;31.07;31.92;100160.34;1793986;77;22197;-58
2021/05/31 10:51:42;;;;;;;4.53;2.55;;;;;;;30.84;32.60;100162.18;1766361;80;21130;-59
2021/05/31 10:54:18;;;;;;;2.75;1.42;;;;;;;31.40;31.91;100151.56;1833522;77;22170;-58
2021/05/31 10:56:54;;;;;;;3.15;2.12;;;;;;;31.64;31.16;100149.48;1801884;77;27937;-58
2021/05/31 10:59:28;;;;;;;2.35;1.50;;;;;;;31.67;31.07;100154.61;1826955;77;22163;-57
2021/05/31 11:02:04;;;;;;;4.15;1.40;;;;;;;31.66;31.05;100152.90;1843028;77;22177;-57
2021/05/31 11:04:39;;;;;;;1.77;1.27;;;;;;;31.58;30.76;100148.77;1844143;77;22154;-58
2021/05/31 11:07:26;;;;;;;2.47;1.52;;;;;;;31.52;31.21;100147.56;1842063;77;22185;-58
2021/05/31 11:10:17;;;;;;;2.10;1.72;;;;;;;31.45;31.76;100149.22;1830616;77;22152;-59
2021/05/31 11:13:13;;;;;;;2.35;1.25;;;;;;;31.22;29.26;100148.41;1816961;77;22568;-58
2021/05/31 11:16:09;;;;;;;2.25;1.47;;;;;;;30.79;30.53;100144.66;1823764;77;22120;-57
2021/05/31 11:18:45;;;;;;;3.70;1.70;;;;;;;30.78;31.81;100143.78;1806264;77;22159;-57
2021/05/31 11:21:39;;;;;;;2.47;1.70;;;;;;;30.90;32.29;100136.76;1837285;77;28437;-56
2021/05/31 11:24:18;;;;;;;3.62;1.50;;;;;;;31.11;32.15;100134.55;1830567;77;22158;-57
2021/05/31 11:26:51;;;;;;;3.05;1.50;;;;;;;31.41;32.07;100131.52;1849992;77;22598;-57
2021/05/31 11:29:28;;;;;;;2.30;1.45;;;;;;;31.71;32.05;100128.78;1834716;77;22207;-55
2021/05/31 11:32:07;;;;;;;8.88;2.00;;;;;;;31.85;30.00;100124.61;1846361;77;22185;-57
2021/05/31 11:35:02;;;;;;;3.87;1.80;;;;;;;31.50;30.59;100133.80;1792388;80;21253;-57
2021/05/31 11:37:36;;;;;;;4.20;1.80;;;;;;;31.12;29.91;100125.39;1817919;77;22195;-57
2021/05/31 11:40:26;;;;;;;3.98;1.55;;;;;;;30.81;30.11;100127.70;1834771;77;22626;-57
2021/05/31 11:43:02;;;;;;;2.02;1.62;;;;;;;30.23;31.06;100127.12;1816266;77;22184;-57
2021/05/31 11:45:38;;;;;;;3.35;1.90;;;;;;;30.25;31.06;100125.95;1852961;77;22203;-57
2021/05/31 11:48:24;;;;;;;5.67;2.00;;;;;;;30.15;31.61;100131.09;1758414;81;21170;-58
2021/05/31 11:50:57;;;;;;;3.47;1.50;;;;;;;30.18;32.33;100119.94;1834700;77;22183;-57
2021/05/31 11:53:31;;;;;;;1.82;1.40;;;;;;;29.98;31.54;100125.50;1804996;77;22170;-57
2021/05/31 11:56:07;;;;;;;3.40;2.20;;;;;;;29.60;31.93;100116.02;1834590;77;22175;-57
2021/05/31 11:58:54;;;;;;;5.37;2.33;;;;;;;29.44;32.76;100129.34;1763673;80;21170;-58
2021/05/31 12:01:29;;;;;;;7.40;1.87;;;;;;;29.63;33.28;100117.08;1820159;77;22141;-58
2021/05/31 12:04:05;;;;;;;3.90;1.80;;;;;;;29.95;33.33;100111.69;1819956;77;22667;-56
2021/05/31 12:06:40;;;;;;;4.72;1.70;;;;;;;30.09;33.19;100104.92;1823228;77;22178;-57
2021/05/31 12:09:19;;;;;;;2.80;1.72;;;;;;;30.23;33.34;100103.56;1834692;77;22184;-56
2021/05/31 12:11:54;;;;;;;4.55;2.25;;;;;;;30.35;33.26;100103.31;1831142;77;22160;-57
2021/05/31 12:14:29;;;;;;;3.02;2.00;;;;;;;30.50;31.88;100096.34;1824810;77;22201;-58
2021/05/31 12:17:19;;;;;;;3.35;1.52;;;;;;;30.52;31.07;100092.97;1764615;80;21604;-58
2021/05/31 12:19:52;;;;;;;4.60;1.87;;;;;;;30.92;32.76;100093.98;1834808;77;22180;-56
2021/05/31 12:22:30;;;;;;;2.83;1.70;;;;;;;31.52;32.40;100090.45;1824038;77;22218;-58
2021/05/31 12:25:09;;;;;;;8.93;5.78;;;;;;;31.95;30.82;100096.42;1833031;77;22607;-58
2021/05/31 12:27:44;;;;;;;5.40;3.00;;;;;;;31.94;29.86;100092.87;1819923;77;22194;-57
2021/05/31 12:30:18;;;;;;;5.22;2.60;;;;;;;31.77;30.79;100081.58;1819142;77;27986;-56